Main page
METAR-TAF:

METAR-TAF

Airports :

Brunei International Airport

Brunei, Brunei

latitude: 04-56N, longitude: 114-56E, elevation: 22 m

Current weather observation

The report was made 41 minutes ago, at 03:30 UTC
Wind 14 kt from the Northeast
Temperature 31°C
Humidity 55%
Pressure 1013 hPa
Visibility 10 km or more
Few clouds at a height of 1600 ft
Broken clouds at a height of 30000 ft

METAR: WBSB 220330Z 05014KT 9999 FEW016 BKN300 31/21 Q1013 WS ALL RWY NOSIG

Time: 12:11 (04:11 UTC)

Forecast

The report was made 5 hours and 11 minutes ago, at 23:00 UTC
Forecast valid from 22 at 00 UTC to 23 at 06 UTC
Wind 3 kt from the South/Southwest
Visibility 10 km or more
Few clouds at a height of 1500 ft
Becoming
from 22 at 03 UTC to 22 at 05 UTC
Wind 10 kt from the Northeast
Few clouds at a height of 1600 ft

TAF: WBSB 212300Z 2200/2306 20003KT 9999 FEW015 BECMG 2203/2205 04010KT FEW016

Weather observations and forecasts of more than 4000 airports (METAR and TAF reports).

The available stations are represented by yellow and red dots on the map.

Hover mouse over dot to see the name of the station.

Then click to see weather observations and forecasts.

To change the map : click on the green buttons with a black cross to zoom in, on the green button with a dash to zoom out, or on the green arrows for adjacent maps.


METAR-TAF: